createdAt,value
2023-02-08T00:00:19.440Z,18.38
2023-02-08T00:02:47.114Z,19.63
2023-02-08T00:05:14.743Z,18.02
2023-02-08T00:07:42.267Z,18.27
2023-02-08T00:10:10.512Z,19.50
2023-02-08T00:12:38.344Z,17.08
2023-02-08T00:15:06.135Z,16.60
2023-02-08T00:17:33.673Z,17.73
2023-02-08T00:20:01.307Z,19.25
2023-02-08T00:22:28.900Z,19.08
2023-02-08T00:24:56.465Z,19.40
2023-02-08T00:27:24.016Z,22.27
2023-02-08T00:29:51.562Z,17.08
2023-02-08T00:32:19.253Z,18.27
2023-02-08T00:34:46.816Z,15.98
2023-02-08T00:37:14.388Z,19.42
2023-02-08T00:39:42.947Z,20.95
2023-02-08T00:42:10.523Z,18.73
2023-02-08T00:44:38.459Z,18.27
2023-02-08T00:47:06.043Z,19.20
2023-02-08T00:49:33.640Z,20.45
2023-02-08T00:52:01.366Z,22.00
2023-02-08T00:54:28.933Z,18.52
2023-02-08T00:56:56.487Z,18.60
2023-02-08T00:59:25.206Z,20.48
2023-02-08T01:01:52.793Z,17.85
2023-02-08T01:04:20.310Z,18.38
2023-02-08T01:06:48.227Z,20.70
2023-02-08T01:09:15.805Z,19.15
2023-02-08T01:11:43.392Z,22.85
2023-02-08T01:14:10.959Z,20.85
2023-02-08T01:16:38.730Z,20.95
2023-02-08T01:19:06.911Z,17.70
2023-02-08T01:21:38.633Z,19.20
2023-02-08T01:24:06.496Z,20.35
2023-02-08T01:26:34.066Z,20.92
2023-02-08T01:29:01.719Z,20.58
2023-02-08T01:31:32.190Z,19.63
2023-02-08T01:34:01.150Z,21.50
2023-02-08T01:36:29.461Z,20.08
2023-02-08T01:38:57.436Z,20.55
2023-02-08T01:41:30.150Z,19.40
2023-02-08T01:44:17.485Z,23.52
2023-02-08T01:46:46.384Z,19.73
2023-02-08T01:49:20.064Z,18.25
2023-02-08T01:51:56.785Z,19.33
2023-02-08T01:54:26.535Z,19.58
2023-02-08T01:56:54.124Z,21.70
2023-02-08T01:59:23.719Z,22.80
2023-02-08T02:01:53.051Z,19.33
2023-02-08T02:04:21.705Z,21.20
2023-02-08T02:06:52.816Z,21.90
2023-02-08T02:09:33.890Z,18.93
2023-02-08T02:12:01.793Z,21.83
2023-02-08T02:14:29.817Z,22.65
2023-02-08T02:17:00.390Z,21.52
2023-02-08T02:19:33.926Z,20.02
2023-02-08T02:22:08.049Z,19.10
2023-02-08T02:24:46.368Z,21.85
2023-02-08T02:27:19.423Z,24.42
2023-02-08T02:30:13.233Z,21.35
2023-02-08T02:32:52.686Z,24.48
2023-02-08T02:35:32.296Z,21.27
2023-02-08T02:38:08.892Z,19.48
2023-02-08T02:40:37.148Z,21.50
2023-02-08T02:43:35.572Z,24.38
2023-02-08T02:46:12.172Z,23.52
2023-02-08T02:48:49.203Z,23.88
2023-02-08T02:51:20.689Z,20.27
2023-02-08T02:54:03.794Z,19.48
2023-02-08T02:56:35.109Z,22.13
2023-02-08T02:59:05.646Z,23.67
2023-02-08T03:01:33.538Z,20.70
2023-02-08T03:04:02.051Z,20.30
2023-02-08T03:06:42.064Z,22.20
2023-02-08T03:09:12.598Z,20.98
2023-02-08T03:11:41.936Z,22.58
2023-02-08T03:14:15.196Z,22.70
2023-02-08T03:17:05.965Z,20.17
2023-02-08T03:19:39.754Z,23.65
2023-02-08T03:22:15.804Z,23.98
2023-02-08T03:24:57.688Z,22.80
2023-02-08T03:27:37.654Z,27.08
2023-02-08T03:30:20.670Z,23.40
2023-02-08T03:32:48.246Z,22.75
2023-02-08T03:35:18.104Z,22.77
2023-02-08T03:37:48.833Z,24.17
2023-02-08T03:40:19.364Z,24.97
2023-02-08T03:42:48.037Z,24.25
2023-02-08T03:45:19.420Z,21.00
2023-02-08T03:47:48.730Z,27.90
2023-02-08T03:50:17.775Z,25.92
2023-02-08T03:52:47.229Z,20.77
2023-02-08T03:55:17.166Z,26.65
2023-02-08T03:57:53.877Z,25.00
2023-02-08T04:00:22.266Z,22.77
2023-02-08T04:02:55.452Z,19.45
2023-02-08T04:05:24.121Z,23.08
2023-02-08T04:07:52.268Z,24.20
2023-02-08T04:10:20.063Z,24.23
2023-02-08T04:12:48.833Z,22.75
2023-02-08T04:15:16.524Z,23.05
2023-02-08T04:17:44.107Z,21.17
2023-02-08T04:20:12.105Z,23.55
2023-02-08T04:22:39.743Z,26.35
2023-02-08T04:25:07.572Z,21.98
2023-02-08T04:27:35.236Z,21.42
2023-02-08T04:30:02.894Z,22.90
2023-02-08T04:32:30.433Z,27.08
2023-02-08T04:34:58.116Z,22.15
2023-02-08T04:37:25.642Z,20.45
2023-02-08T04:39:53.366Z,24.27
2023-02-08T04:42:20.933Z,24.40
2023-02-08T04:44:48.569Z,22.75
2023-02-08T04:47:16.132Z,24.70
2023-02-08T04:49:43.747Z,24.98
2023-02-08T04:52:11.328Z,25.35
2023-02-08T04:54:40.857Z,25.73
2023-02-08T04:57:09.753Z,20.00
2023-02-08T04:59:37.379Z,25.95
2023-02-08T05:02:04.943Z,23.98
2023-02-08T05:04:32.910Z,22.80
2023-02-08T05:07:00.897Z,21.60
2023-02-08T05:09:28.430Z,22.33
2023-02-08T05:11:56.010Z,23.38
2023-02-08T05:14:23.691Z,21.70
2023-02-08T05:16:51.354Z,24.05
2023-02-08T05:19:18.945Z,22.88
2023-02-08T05:21:46.557Z,28.02
2023-02-08T05:24:14.177Z,27.50
2023-02-08T05:26:42.295Z,22.90
2023-02-08T05:29:10.650Z,26.10
2023-02-08T05:31:38.492Z,28.25
2023-02-08T05:34:06.146Z,30.85
2023-02-08T05:36:33.750Z,28.63
2023-02-08T05:39:01.270Z,24.58
2023-02-08T05:41:28.824Z,27.25
2023-02-08T05:43:56.430Z,27.75
2023-02-08T05:46:24.059Z,26.17
2023-02-08T05:48:51.626Z,27.98
2023-02-08T05:51:20.760Z,26.35
2023-02-08T05:53:48.388Z,25.92
2023-02-08T05:56:15.938Z,24.50
2023-02-08T05:58:43.540Z,26.58
2023-02-08T06:01:11.620Z,28.85
2023-02-08T06:03:39.648Z,83.38
2023-02-08T06:06:07.655Z,37.35
2023-02-08T06:08:35.222Z,25.48
2023-02-08T06:11:02.879Z,33.20
2023-02-08T06:13:30.511Z,28.67
2023-02-08T06:15:58.269Z,26.60
2023-02-08T06:18:25.865Z,26.23
2023-02-08T06:20:54.362Z,26.15
2023-02-08T06:23:22.663Z,25.30
2023-02-08T06:25:50.365Z,28.48
2023-02-08T06:28:18.098Z,27.20
2023-02-08T06:30:45.689Z,25.38
2023-02-08T06:33:15.833Z,34.17
2023-02-08T06:35:46.936Z,26.90
2023-02-08T06:38:15.186Z,28.83
2023-02-08T06:40:43.035Z,27.52
2023-02-08T06:43:10.637Z,28.00
2023-02-08T06:45:38.253Z,32.25
2023-02-08T06:48:06.570Z,27.30
2023-02-08T06:50:34.184Z,27.55
2023-02-08T06:53:01.829Z,27.48
2023-02-08T06:55:29.397Z,30.63
2023-02-08T06:57:57.076Z,26.13
2023-02-08T07:00:24.701Z,29.17
2023-02-08T07:02:52.599Z,24.70
2023-02-08T07:05:20.338Z,31.83
2023-02-08T07:07:48.720Z,31.33
2023-02-08T07:10:16.841Z,29.30
2023-02-08T07:12:44.408Z,31.27
2023-02-08T07:15:13.539Z,27.98
2023-02-08T07:17:41.196Z,34.25
2023-02-08T07:20:09.193Z,28.30
2023-02-08T07:22:36.829Z,34.72
2023-02-08T07:25:04.929Z,32.20
2023-02-08T07:27:32.653Z,24.27
2023-02-08T07:30:00.326Z,29.55
2023-02-08T07:32:27.945Z,27.90
2023-02-08T07:34:55.506Z,30.73
2023-02-08T07:37:24.344Z,27.80
2023-02-08T07:39:51.973Z,37.05
2023-02-08T07:42:19.559Z,23.60
2023-02-08T07:44:56.414Z,25.27
2023-02-08T07:47:24.106Z,26.25
2023-02-08T07:49:51.694Z,33.88
2023-02-08T07:52:19.341Z,27.63
2023-02-08T07:54:46.878Z,30.83
2023-02-08T07:57:20.932Z,30.58
2023-02-08T07:59:48.663Z,28.63
2023-02-08T08:02:16.532Z,29.90
2023-02-08T08:04:44.096Z,27.02
2023-02-08T08:07:11.728Z,26.80
2023-02-08T08:09:39.297Z,26.17
2023-02-08T08:12:07.102Z,25.70
2023-02-08T08:14:34.611Z,28.58
2023-02-08T08:17:02.259Z,25.70
2023-02-08T08:19:29.877Z,28.83
2023-02-08T08:21:57.479Z,29.60
2023-02-08T08:24:25.008Z,26.77
2023-02-08T08:26:52.761Z,27.65
2023-02-08T08:29:21.898Z,27.88
2023-02-08T08:31:49.602Z,26.58
2023-02-08T08:34:17.293Z,25.80
2023-02-08T08:36:44.845Z,23.08
2023-02-08T08:39:12.602Z,26.85
2023-02-08T08:41:40.150Z,28.17
2023-02-08T08:44:07.860Z,26.48
2023-02-08T08:46:35.458Z,24.40
2023-02-08T08:49:03.270Z,29.40
2023-02-08T08:51:35.310Z,28.98
2023-02-08T08:54:03.825Z,24.20
2023-02-08T08:56:31.659Z,27.23
2023-02-08T08:58:59.416Z,29.55
2023-02-08T09:01:27.026Z,25.40
2023-02-08T09:03:54.710Z,26.55
2023-02-08T09:06:22.307Z,24.77
2023-02-08T09:08:51.760Z,26.20
2023-02-08T09:11:19.425Z,22.65
2023-02-08T09:13:47.153Z,25.05
2023-02-08T09:16:18.817Z,27.52
2023-02-08T09:18:46.574Z,24.63
2023-02-08T09:21:18.784Z,26.33
2023-02-08T09:23:49.821Z,24.23
2023-02-08T09:26:18.462Z,30.50
2023-02-08T09:28:46.589Z,27.27
2023-02-08T09:31:19.018Z,28.33
2023-02-08T09:33:47.437Z,32.85
2023-02-08T09:36:15.790Z,26.65
2023-02-08T09:38:43.786Z,21.88
2023-02-08T09:41:17.594Z,34.88
2023-02-08T09:44:01.172Z,21.98
2023-02-08T09:46:30.740Z,26.67
2023-02-08T09:49:01.529Z,26.65
2023-02-08T09:51:33.303Z,20.67
2023-02-08T09:54:03.655Z,27.20
2023-02-08T09:56:32.900Z,25.50
2023-02-08T09:59:01.425Z,30.38
2023-02-08T10:01:30.435Z,26.58
2023-02-08T10:04:01.053Z,26.65
2023-02-08T10:06:30.401Z,27.05
2023-02-08T10:09:01.381Z,24.60
2023-02-08T10:11:44.017Z,24.83
2023-02-08T10:14:23.494Z,25.75
2023-02-08T10:17:02.007Z,25.50
2023-02-08T10:19:48.436Z,26.90
2023-02-08T10:22:16.085Z,24.77
2023-02-08T10:24:47.668Z,30.92
2023-02-08T10:29:46.406Z,25.92
2023-02-08T10:32:16.795Z,25.20
2023-02-08T10:34:50.041Z,27.33
2023-02-08T10:37:19.194Z,21.40
2023-02-08T10:39:47.154Z,25.65
2023-02-08T10:42:19.343Z,23.35
2023-02-08T10:45:22.600Z,29.00
2023-02-08T10:48:01.607Z,23.20
2023-02-08T10:50:37.943Z,18.75
2023-02-08T10:53:06.061Z,22.35
2023-02-08T10:55:36.594Z,22.10
2023-02-08T10:58:05.686Z,23.10
2023-02-08T11:00:35.604Z,23.00
2023-02-08T11:03:13.335Z,19.13
2023-02-08T11:05:41.121Z,21.15
2023-02-08T11:08:10.222Z,21.63
2023-02-08T11:10:38.699Z,21.98
2023-02-08T11:13:15.355Z,20.17
2023-02-08T11:15:51.762Z,19.98
2023-02-08T11:18:26.959Z,19.70
2023-02-08T11:20:56.871Z,21.20
2023-02-08T11:23:26.256Z,20.15
2023-02-08T11:25:54.387Z,23.20
2023-02-08T11:28:23.490Z,21.65
2023-02-08T11:30:58.582Z,21.83
2023-02-08T11:33:27.400Z,19.10
2023-02-08T11:35:56.314Z,22.25
2023-02-08T11:38:27.587Z,21.55
2023-02-08T11:41:00.275Z,24.02
2023-02-08T11:43:29.639Z,22.30
2023-02-08T11:45:58.482Z,22.15
2023-02-08T11:48:32.542Z,21.73
2023-02-08T11:51:01.754Z,21.33
2023-02-08T11:53:33.512Z,20.55
2023-02-08T11:56:05.640Z,20.35
2023-02-08T11:58:33.346Z,22.40
2023-02-08T12:01:17.377Z,21.35
2023-02-08T12:03:47.261Z,23.13
2023-02-08T12:06:20.993Z,19.48
2023-02-08T12:08:52.047Z,23.55
2023-02-08T12:11:26.251Z,21.52
2023-02-08T12:13:59.792Z,20.67
2023-02-08T12:16:43.061Z,22.40
2023-02-08T12:19:29.425Z,22.02
2023-02-08T12:22:02.150Z,22.98
2023-02-08T12:24:38.935Z,22.90
2023-02-08T12:27:30.919Z,20.95
2023-02-08T12:30:05.180Z,23.60
2023-02-08T12:32:38.817Z,22.75
2023-02-08T12:35:06.418Z,21.52
2023-02-08T12:38:12.586Z,22.50
2023-02-08T12:40:49.624Z,23.08
2023-02-08T12:43:24.736Z,22.38
2023-02-08T12:45:52.289Z,26.73
2023-02-08T12:48:27.572Z,23.65
2023-02-08T12:51:07.403Z,23.08
2023-02-08T12:53:38.697Z,22.77
2023-02-08T12:56:10.527Z,20.50
2023-02-08T12:59:08.249Z,20.88
2023-02-08T13:01:45.472Z,23.00
2023-02-08T13:04:21.202Z,21.73
2023-02-08T13:06:57.904Z,20.75
2023-02-08T13:09:35.880Z,22.58
2023-02-08T13:12:06.445Z,26.17
2023-02-08T13:14:34.191Z,22.73
2023-02-08T13:17:05.962Z,23.30
2023-02-08T13:19:59.726Z,22.73
2023-02-08T13:22:28.382Z,21.77
2023-02-08T13:25:09.068Z,21.95
2023-02-08T13:27:36.793Z,23.77
2023-02-08T13:30:04.946Z,25.77
2023-02-08T13:32:39.213Z,20.17
2023-02-08T13:35:12.200Z,23.02
2023-02-08T13:37:39.980Z,22.20
2023-02-08T13:40:20.263Z,22.63
2023-02-08T13:42:49.205Z,24.23
2023-02-08T13:45:25.402Z,23.38
2023-02-08T13:47:58.521Z,23.23
2023-02-08T13:50:35.331Z,24.98
2023-02-08T13:53:03.404Z,20.60
2023-02-08T13:55:35.687Z,24.17
2023-02-08T13:58:15.310Z,23.40
2023-02-08T14:00:55.019Z,23.25
2023-02-08T14:03:27.318Z,22.30
2023-02-08T14:05:57.975Z,23.05
2023-02-08T14:08:28.372Z,25.10
2023-02-08T14:11:12.543Z,24.05
2023-02-08T14:13:55.491Z,26.83
2023-02-08T14:16:42.637Z,23.42
2023-02-08T14:19:28.345Z,25.60
2023-02-08T14:22:14.537Z,20.92
2023-02-08T14:24:47.402Z,24.58
2023-02-08T14:27:23.352Z,25.95
2023-02-08T14:30:02.446Z,18.90
2023-02-08T14:32:31.762Z,20.65
2023-02-08T14:35:09.728Z,20.63
2023-02-08T14:37:37.501Z,20.73
2023-02-08T14:40:24.375Z,22.95
2023-02-08T14:43:11.117Z,20.08
2023-02-08T14:45:44.426Z,21.63
2023-02-08T14:48:31.615Z,19.90
2023-02-08T14:51:11.431Z,19.27
2023-02-08T14:53:59.272Z,22.70
2023-02-08T14:56:28.814Z,20.05
2023-02-08T14:59:01.474Z,20.05
2023-02-08T15:01:36.165Z,21.33
2023-02-08T15:04:03.961Z,19.52
2023-02-08T15:06:49.793Z,20.65
2023-02-08T15:09:25.125Z,18.83
2023-02-08T15:12:03.890Z,21.25
2023-02-08T15:14:33.897Z,20.42
2023-02-08T15:17:01.886Z,18.50
2023-02-08T15:19:33.983Z,17.25
2023-02-08T15:22:36.908Z,17.75
2023-02-08T15:25:27.058Z,19.88
2023-02-08T15:28:02.970Z,22.08
2023-02-08T15:30:37.553Z,17.80
2023-02-08T15:33:09.806Z,22.65
2023-02-08T15:35:37.530Z,22.10
2023-02-08T15:38:05.846Z,18.75
2023-02-08T15:40:34.574Z,21.33
2023-02-08T15:43:21.031Z,16.90
2023-02-08T15:45:57.357Z,19.77
2023-02-08T15:48:25.654Z,23.67
2023-02-08T15:50:54.255Z,19.88
2023-02-08T15:53:22.401Z,20.92
2023-02-08T15:55:52.875Z,22.00
2023-02-08T15:58:20.388Z,17.10
2023-02-08T16:00:48.265Z,18.73
2023-02-08T16:03:18.315Z,22.10
2023-02-08T16:05:54.171Z,21.02
2023-02-08T16:08:26.237Z,21.70
2023-02-08T16:11:02.454Z,25.65
2023-02-08T16:13:34.651Z,22.02
2023-02-08T16:16:19.496Z,21.88
2023-02-08T16:18:53.132Z,22.65
2023-02-08T16:21:26.603Z,21.27
2023-02-08T16:23:56.483Z,20.17
2023-02-08T16:26:29.073Z,21.42
2023-02-08T16:29:04.315Z,21.30
2023-02-08T16:31:35.124Z,19.17
2023-02-08T16:34:04.714Z,22.85
2023-02-08T16:36:37.094Z,22.60
2023-02-08T16:39:32.043Z,26.00
2023-02-08T16:42:16.079Z,24.80
2023-02-08T16:44:58.745Z,26.13
2023-02-08T16:47:36.757Z,23.23
2023-02-08T16:50:05.269Z,21.90
2023-02-08T16:52:33.476Z,20.75
2023-02-08T16:55:01.492Z,26.48
2023-02-08T16:57:42.381Z,24.77
2023-02-08T17:00:14.327Z,26.47
2023-02-08T17:02:43.026Z,23.80
2023-02-08T17:05:10.795Z,23.17
2023-02-08T17:07:38.510Z,20.45
2023-02-08T17:10:07.356Z,20.15
2023-02-08T17:12:35.061Z,21.80
2023-02-08T17:15:02.645Z,22.17
2023-02-08T17:17:31.296Z,23.30
2023-02-08T17:19:58.839Z,21.15
2023-02-08T17:22:26.509Z,22.50
2023-02-08T17:24:54.054Z,22.38
2023-02-08T17:27:22.022Z,20.08
2023-02-08T17:29:51.905Z,22.25
2023-02-08T17:32:20.264Z,19.58
2023-02-08T17:34:48.052Z,21.80
2023-02-08T17:37:15.696Z,23.08
2023-02-08T17:39:43.346Z,22.55
2023-02-08T17:42:12.243Z,21.08
2023-02-08T17:44:39.897Z,23.23
2023-02-08T17:47:07.447Z,23.63
2023-02-08T17:49:35.042Z,19.42
2023-02-08T17:52:02.569Z,20.02
2023-02-08T17:54:30.240Z,21.70
2023-02-08T17:56:58.574Z,27.33
2023-02-08T17:59:27.261Z,21.90
2023-02-08T18:01:54.879Z,23.25
2023-02-08T18:04:22.545Z,20.38
2023-02-08T18:06:50.176Z,22.05
2023-02-08T18:09:17.746Z,20.63
2023-02-08T18:11:45.878Z,21.13
2023-02-08T18:14:13.526Z,27.42
2023-02-08T18:16:41.077Z,20.13
2023-02-08T18:19:08.749Z,22.67
2023-02-08T18:21:36.521Z,23.08
2023-02-08T18:24:04.856Z,23.15
2023-02-08T18:26:34.314Z,21.20
2023-02-08T18:29:03.184Z,21.88
2023-02-08T18:31:31.481Z,23.83
2023-02-08T18:33:59.211Z,21.90
2023-02-08T18:36:26.733Z,24.70
2023-02-08T18:38:55.617Z,22.42
2023-02-08T18:41:25.114Z,24.00
2023-02-08T18:43:54.796Z,21.80
2023-02-08T18:46:23.555Z,21.05
2023-02-08T18:48:51.669Z,24.38
2023-02-08T18:51:19.760Z,22.17
2023-02-08T18:53:51.783Z,20.80
2023-02-08T18:56:22.812Z,18.95
2023-02-08T18:58:51.919Z,22.38
2023-02-08T19:01:20.810Z,18.27
2023-02-08T19:03:48.675Z,23.63
2023-02-08T19:06:18.250Z,21.95
2023-02-08T19:08:46.487Z,21.80
2023-02-08T19:11:19.194Z,23.10
2023-02-08T19:13:47.374Z,18.60
2023-02-08T19:16:17.261Z,19.70
2023-02-08T19:18:45.629Z,22.95
2023-02-08T19:21:14.395Z,21.70
2023-02-08T19:23:41.981Z,23.30
2023-02-08T19:26:17.834Z,22.73
2023-02-08T19:28:46.089Z,19.23
2023-02-08T19:31:15.241Z,21.63
2023-02-08T19:33:44.514Z,20.15
2023-02-08T19:36:22.415Z,22.95
2023-02-08T19:38:50.681Z,21.58
2023-02-08T19:41:21.563Z,20.40
2023-02-08T19:43:49.759Z,24.25
2023-02-08T19:46:20.085Z,20.38
2023-02-08T19:48:47.721Z,20.38
2023-02-08T19:51:15.294Z,19.23
2023-02-08T19:53:42.892Z,20.77
2023-02-08T19:56:12.757Z,20.00
2023-02-08T19:58:40.330Z,19.38
2023-02-08T20:01:12.672Z,21.58
2023-02-08T20:03:40.350Z,23.98
2023-02-08T20:06:14.295Z,20.65
2023-02-08T20:08:41.990Z,21.77
2023-02-08T20:11:16.261Z,16.05
2023-02-08T20:13:43.842Z,18.88
2023-02-08T20:16:11.566Z,19.25
2023-02-08T20:18:39.137Z,18.48
2023-02-08T20:21:06.875Z,16.70
2023-02-08T20:23:34.802Z,17.05
2023-02-08T20:26:16.708Z,17.85
2023-02-08T20:31:16.180Z,18.52
2023-02-08T20:33:44.017Z,18.80
2023-02-08T20:36:16.337Z,19.70
2023-02-08T20:38:43.864Z,13.73
2023-02-08T20:41:13.208Z,19.92
2023-02-08T20:43:42.345Z,15.05
2023-02-08T20:46:11.138Z,14.75
2023-02-08T20:48:38.688Z,17.58
2023-02-08T20:51:06.400Z,14.65
2023-02-08T20:53:34.374Z,20.20
2023-02-08T20:56:05.458Z,17.20
2023-02-08T20:58:33.132Z,16.90
2023-02-08T21:01:00.823Z,14.38
2023-02-08T21:03:28.547Z,17.73
2023-02-08T21:05:56.123Z,16.52
2023-02-08T21:08:23.658Z,13.55
2023-02-08T21:10:51.211Z,15.07
2023-02-08T21:13:18.726Z,16.40
2023-02-08T21:15:46.249Z,16.67
2023-02-08T21:18:13.786Z,15.98
2023-02-08T21:20:41.329Z,13.77
2023-02-08T21:23:08.902Z,17.67
2023-02-08T21:25:44.043Z,18.05
2023-02-08T21:28:12.167Z,14.93
2023-02-08T21:30:40.371Z,16.55
2023-02-08T21:33:07.997Z,15.30
2023-02-08T21:35:36.240Z,17.15
2023-02-08T21:38:05.777Z,15.40
2023-02-08T21:40:33.646Z,14.13
2023-02-08T21:43:01.211Z,14.77
2023-02-08T21:45:28.756Z,14.45
2023-02-08T21:47:56.358Z,14.82
2023-02-08T21:50:42.971Z,14.65
2023-02-08T21:53:31.108Z,15.98
2023-02-08T21:55:59.120Z,14.48
2023-02-08T21:58:26.647Z,13.05
2023-02-08T22:00:54.234Z,13.18
2023-02-08T22:03:21.950Z,13.80
2023-02-08T22:06:08.418Z,15.45
2023-02-08T22:08:35.981Z,12.10
2023-02-08T22:11:04.666Z,14.55
2023-02-08T22:13:33.156Z,13.50
2023-02-08T22:16:02.359Z,13.77
2023-02-08T22:18:29.986Z,13.32
2023-02-08T22:20:57.527Z,15.30
2023-02-08T22:23:25.193Z,11.20
2023-02-08T22:25:52.756Z,15.65
2023-02-08T22:28:20.294Z,14.93
2023-02-08T22:30:48.785Z,12.05
2023-02-08T22:33:16.445Z,12.75
2023-02-08T22:35:43.996Z,12.63
2023-02-08T22:38:11.709Z,14.43
2023-02-08T22:40:42.449Z,14.18
2023-02-08T22:43:10.090Z,14.70
2023-02-08T22:45:37.653Z,14.20
2023-02-08T22:48:06.739Z,13.52
2023-02-08T22:50:34.647Z,16.73
2023-02-08T22:53:02.189Z,13.90
2023-02-08T22:55:29.741Z,15.20
2023-02-08T22:57:57.304Z,15.48
2023-02-08T23:00:24.896Z,14.10
2023-02-08T23:02:52.481Z,13.48
2023-02-08T23:05:20.082Z,15.30
2023-02-08T23:07:47.627Z,15.05
2023-02-08T23:10:15.151Z,11.63
2023-02-08T23:12:42.696Z,11.32
2023-02-08T23:15:11.107Z,14.40
2023-02-08T23:17:38.710Z,10.95
2023-02-08T23:20:06.457Z,12.55
2023-02-08T23:22:37.600Z,13.52
2023-02-08T23:25:05.328Z,13.98
2023-02-08T23:27:32.858Z,15.10
2023-02-08T23:30:00.410Z,13.30
2023-02-08T23:32:27.998Z,11.68
2023-02-08T23:34:55.528Z,14.38
2023-02-08T23:37:23.077Z,11.50
2023-02-08T23:39:50.629Z,13.50
2023-02-08T23:42:27.285Z,14.00
2023-02-08T23:44:55.717Z,12.45
2023-02-08T23:47:24.395Z,15.13
2023-02-08T23:49:52.085Z,11.60
2023-02-08T23:52:20.069Z,12.80
2023-02-08T23:54:48.058Z,12.98
2023-02-08T23:57:15.670Z,12.55
2023-02-08T23:59:43.189Z,13.73
